Time;durP1;ratioP1;P1;durP2;ratioP2;P2;SDS_P1;SDS_P2;PMS_P1;PMS_P2;Temp;Humidity;BMP_temperature;BMP_pressure;BME280_temperature;BME280_humidity;BME280_pressure;Samples;Min_cycle;Max_cycle;Signal;HPM_P1;HPM_P2
2023/06/24 00:01:06;;;;;;;4.70;2.30;;;20.90;97.60;;;;;;4930332;28;20433;-72
2023/06/24 00:03:36;;;;;;;3.90;2.30;;;20.90;97.60;;;;;;4936262;28;20581;-72
2023/06/24 00:06:03;;;;;;;3.10;2.20;;;20.90;97.50;;;;;;4968310;28;20464;-73
2023/06/24 00:08:34;;;;;;;4.25;2.42;;;20.90;97.50;;;;;;4933943;28;20438;-73
2023/06/24 00:11:03;;;;;;;4.53;2.20;;;20.90;97.40;;;;;;4942635;28;20985;-73
2023/06/24 00:13:30;;;;;;;4.28;2.10;;;21.00;97.40;;;;;;4965567;28;21270;-73
2023/06/24 00:15:56;;;;;;;2.95;2.20;;;21.00;97.20;;;;;;4942299;28;20486;-73
2023/06/24 00:18:24;;;;;;;3.40;2.40;;;21.00;97.20;;;;;;4946823;28;20427;-73
2023/06/24 00:20:51;;;;;;;3.50;2.22;;;21.10;97.40;;;;;;4933141;28;20548;-73
2023/06/24 00:23:25;;;;;;;2.93;2.40;;;21.10;97.20;;;;;;4933288;28;20790;-73
2023/06/24 00:25:54;;;;;;;5.20;2.28;;;21.20;97.10;;;;;;4962677;28;20522;-73
2023/06/24 00:28:22;;;;;;;3.28;2.25;;;21.20;97.00;;;;;;4944265;28;21025;-73
2023/06/24 00:30:49;;;;;;;3.53;2.30;;;21.30;96.70;;;;;;4950942;28;20832;-73
2023/06/24 00:33:20;;;;;;;3.83;2.20;;;21.20;96.50;;;;;;4941628;28;20441;-73
2023/06/24 00:35:52;;;;;;;3.85;2.22;;;21.30;96.70;;;;;;4939509;28;20452;-73
2023/06/24 00:38:19;;;;;;;3.07;2.30;;;21.30;96.50;;;;;;4969591;28;20631;-73
2023/06/24 00:40:46;;;;;;;3.75;2.50;;;21.30;96.60;;;;;;4959702;28;20507;-73
2023/06/24 00:43:12;;;;;;;3.50;2.22;;;21.30;96.60;;;;;;4938210;28;20431;-73
2023/06/24 00:45:39;;;;;;;2.58;2.13;;;21.30;96.70;;;;;;4937086;28;20922;-73
2023/06/24 00:48:06;;;;;;;2.50;2.30;;;21.30;96.70;;;;;;4937820;28;20425;-73
2023/06/24 00:50:32;;;;;;;3.00;2.10;;;21.20;96.70;;;;;;4930273;28;20439;-73
2023/06/24 00:52:58;;;;;;;3.53;2.35;;;21.20;96.70;;;;;;4938593;28;20426;-73
2023/06/24 00:55:28;;;;;;;4.63;2.70;;;21.20;96.70;;;;;;4929860;28;21173;-73
2023/06/24 00:57:55;;;;;;;3.08;2.38;;;21.10;96.70;;;;;;4921202;28;20427;-73
2023/06/24 01:00:24;;;;;;;5.15;2.40;;;21.10;96.80;;;;;;4945881;28;20517;-73
2023/06/24 01:02:51;;;;;;;3.30;2.47;;;21.10;96.90;;;;;;4941792;28;21130;-73
2023/06/24 01:05:23;;;;;;;3.80;2.40;;;21.10;96.90;;;;;;4939185;28;20537;-73
2023/06/24 01:07:55;;;;;;;3.53;2.55;;;21.10;96.90;;;;;;4946328;28;20437;-74
2023/06/24 01:10:23;;;;;;;2.63;2.30;;;21.10;96.90;;;;;;4934436;28;20435;-73
2023/06/24 01:12:50;;;;;;;6.07;2.60;;;21.10;97.00;;;;;;4961854;28;20458;-73
2023/06/24 01:15:20;;;;;;;4.40;2.42;;;21.10;97.00;;;;;;4923247;28;20497;-73
2023/06/24 01:18:02;;;;;;;4.15;2.53;;;21.10;97.00;;;;;;4924099;28;20543;-73
2023/06/24 01:20:58;;;;;;;4.50;2.80;;;21.10;97.10;;;;;;4955414;28;21242;-74
2023/06/24 01:23:48;;;;;;;4.63;2.60;;;21.10;97.20;;;;;;4923853;28;20435;-73
2023/06/24 01:26:42;;;;;;;5.17;2.60;;;21.10;97.40;;;;;;4936522;28;20428;-73
2023/06/24 01:29:54;;;;;;;3.75;2.60;;;21.10;97.40;;;;;;4931057;28;20475;-73
2023/06/24 01:33:08;;;;;;;4.03;2.38;;;21.00;97.50;;;;;;4925124;28;20521;-73
2023/06/24 01:35:36;;;;;;;3.35;2.33;;;21.00;97.60;;;;;;4930223;28;20619;-73
2023/06/24 01:38:24;;;;;;;3.03;2.33;;;21.00;97.60;;;;;;4956923;28;20457;-73
2023/06/24 01:40:52;;;;;;;3.92;2.38;;;21.00;97.60;;;;;;4948320;28;20477;-73
2023/06/24 01:43:23;;;;;;;3.17;2.42;;;20.90;97.50;;;;;;4918089;28;20444;-73
2023/06/24 01:45:54;;;;;;;3.58;2.47;;;20.90;97.80;;;;;;4936498;28;20558;-73
2023/06/24 01:48:34;;;;;;;3.60;2.50;;;20.90;97.40;;;;;;4939819;28;20433;-73
2023/06/24 01:51:24;;;;;;;4.13;2.40;;;20.90;97.40;;;;;;4925251;28;20519;-73
2023/06/24 01:54:02;;;;;;;3.20;2.40;;;20.90;97.30;;;;;;4956327;28;20505;-73
2023/06/24 01:56:30;;;;;;;3.73;2.43;;;21.00;97.30;;;;;;4943161;28;20791;-73
2023/06/24 01:59:01;;;;;;;3.07;2.33;;;20.90;97.20;;;;;;4933784;28;20431;-73
2023/06/24 02:01:31;;;;;;;3.78;2.40;;;20.90;97.10;;;;;;4929840;28;20440;-73
2023/06/24 02:04:00;;;;;;;3.85;2.22;;;20.90;97.20;;;;;;4934544;28;21260;-73
2023/06/24 02:06:29;;;;;;;4.55;2.33;;;21.00;97.00;;;;;;4938876;28;20437;-74
2023/06/24 02:09:00;;;;;;;4.90;2.20;;;21.00;96.90;;;;;;4936148;28;20454;-73
2023/06/24 02:11:30;;;;;;;3.20;2.60;;;21.00;96.60;;;;;;4944737;28;20417;-73
2023/06/24 02:13:59;;;;;;;3.50;2.30;;;21.00;96.60;;;;;;4938488;28;20441;-73
2023/06/24 02:16:28;;;;;;;4.78;2.45;;;21.00;96.70;;;;;;4932952;28;20459;-73
2023/06/24 02:18:56;;;;;;;3.25;2.40;;;21.00;96.60;;;;;;4921430;28;20891;-73
2023/06/24 02:21:25;;;;;;;4.25;2.33;;;21.00;96.60;;;;;;4935272;28;20513;-73
2023/06/24 02:23:53;;;;;;;3.93;2.53;;;20.90;96.50;;;;;;4951250;28;20883;-73
2023/06/24 02:26:20;;;;;;;3.05;2.35;;;20.90;96.60;;;;;;4934288;28;20426;-73
2023/06/24 02:28:49;;;;;;;4.75;2.47;;;20.90;96.70;;;;;;4932345;28;20482;-73
2023/06/24 02:31:16;;;;;;;3.57;2.50;;;20.90;96.70;;;;;;4934275;28;20417;-73
2023/06/24 02:33:43;;;;;;;2.72;2.30;;;20.90;96.80;;;;;;4951560;28;20432;-73
2023/06/24 02:36:11;;;;;;;4.28;2.40;;;20.80;96.60;;;;;;4937888;28;20426;-73
2023/06/24 02:38:37;;;;;;;3.47;2.33;;;20.80;96.70;;;;;;4942653;28;20522;-73
2023/06/24 02:41:05;;;;;;;4.78;2.40;;;20.70;96.50;;;;;;4955447;28;21095;-73
2023/06/24 02:43:32;;;;;;;2.95;2.40;;;20.70;96.50;;;;;;4936935;28;20433;-74
2023/06/24 02:46:02;;;;;;;2.88;2.30;;;20.70;96.50;;;;;;4934353;28;20892;-74
2023/06/24 02:48:32;;;;;;;5.53;2.20;;;20.60;96.30;;;;;;4933078;28;20418;-74
2023/06/24 02:51:00;;;;;;;2.50;2.13;;;20.60;96.20;;;;;;4931248;28;20842;-73
2023/06/24 02:53:27;;;;;;;3.00;2.20;;;20.60;96.20;;;;;;4953090;28;20433;-73
2023/06/24 02:55:57;;;;;;;2.75;2.22;;;20.60;96.20;;;;;;4946102;28;20406;-73
2023/06/24 02:58:31;;;;;;;2.90;2.22;;;20.60;96.00;;;;;;4928306;28;20428;-73
2023/06/24 03:01:08;;;;;;;2.58;2.20;;;20.70;96.20;;;;;;4935478;28;20422;-73
2023/06/24 03:03:35;;;;;;;4.90;2.20;;;20.70;96.10;;;;;;4929772;28;20582;-73
2023/06/24 03:06:03;;;;;;;3.72;2.30;;;20.70;96.00;;;;;;4933922;28;20423;-73
2023/06/24 03:08:30;;;;;;;2.70;2.20;;;20.70;96.00;;;;;;4941688;28;20427;-73
2023/06/24 03:10:57;;;;;;;2.60;2.17;;;20.80;96.00;;;;;;4937966;28;20514;-73
2023/06/24 03:13:24;;;;;;;4.20;2.30;;;20.80;96.10;;;;;;4930806;28;20420;-73
2023/06/24 03:15:51;;;;;;;4.47;2.10;;;20.90;96.20;;;;;;4931509;28;20447;-73
2023/06/24 03:18:17;;;;;;;2.95;2.30;;;20.90;96.40;;;;;;4931157;28;20417;-73
2023/06/24 03:20:44;;;;;;;2.85;2.22;;;20.80;96.00;;;;;;4930788;28;20434;-73
2023/06/24 03:23:11;;;;;;;2.42;1.95;;;20.80;96.10;;;;;;4943031;28;20945;-73
2023/06/24 03:25:37;;;;;;;3.40;2.13;;;20.80;96.30;;;;;;4941896;28;20489;-73
2023/06/24 03:28:07;;;;;;;6.40;2.42;;;20.80;96.40;;;;;;4932812;28;20945;-73
2023/06/24 03:30:33;;;;;;;3.92;2.25;;;20.80;96.40;;;;;;4933122;28;20419;-73
2023/06/24 03:32:59;;;;;;;6.90;2.30;;;20.90;96.30;;;;;;4929875;28;20444;-73
2023/06/24 03:35:26;;;;;;;3.55;2.28;;;20.90;96.00;;;;;;4938095;28;20776;-73
2023/06/24 03:37:52;;;;;;;4.47;2.28;;;20.90;96.00;;;;;;4939366;28;20424;-73
2023/06/24 03:40:19;;;;;;;3.30;2.30;;;21.00;95.90;;;;;;4940206;28;20427;-73
2023/06/24 03:42:45;;;;;;;8.70;2.42;;;21.10;95.50;;;;;;4958862;28;20476;-73
2023/06/24 03:45:11;;;;;;;2.60;2.00;;;21.10;95.70;;;;;;4935571;28;20539;-73
2023/06/24 03:47:38;;;;;;;3.60;2.30;;;21.20;95.90;;;;;;4927002;28;20536;-74
2023/06/24 03:50:06;;;;;;;3.70;2.40;;;21.20;96.30;;;;;;4927149;28;20473;-74
2023/06/24 03:52:32;;;;;;;2.65;2.30;;;21.20;96.70;;;;;;4928146;28;20418;-74
2023/06/24 03:54:58;;;;;;;3.92;2.53;;;21.20;96.80;;;;;;4957219;28;20424;-74
2023/06/24 03:57:24;;;;;;;3.90;2.40;;;21.30;97.20;;;;;;4936839;28;20529;-74
2023/06/24 03:59:51;;;;;;;3.30;2.20;;;21.30;97.30;;;;;;4930396;28;20426;-74
2023/06/24 04:02:17;;;;;;;3.45;2.40;;;21.40;97.40;;;;;;4938636;28;20435;-74
2023/06/24 04:04:44;;;;;;;3.37;2.20;;;21.40;97.50;;;;;;4942462;28;20491;-75
2023/06/24 04:07:10;;;;;;;3.45;2.40;;;21.40;97.60;;;;;;4932064;28;20450;-74
2023/06/24 04:09:36;;;;;;;2.67;2.30;;;21.40;97.60;;;;;;4947648;28;20431;-74
2023/06/24 04:12:03;;;;;;;3.45;2.45;;;21.40;97.80;;;;;;4958584;28;20511;-74
2023/06/24 04:14:29;;;;;;;2.60;2.17;;;21.40;97.70;;;;;;4946172;28;21083;-73
2023/06/24 04:16:55;;;;;;;4.53;2.50;;;21.40;97.90;;;;;;4934404;28;20456;-73
2023/06/24 04:19:21;;;;;;;3.97;2.30;;;21.50;97.90;;;;;;4939059;28;20423;-73
2023/06/24 04:21:47;;;;;;;4.78;2.42;;;21.60;97.50;;;;;;4933040;28;20431;-73
2023/06/24 04:24:14;;;;;;;3.10;2.42;;;21.70;97.50;;;;;;4960275;28;20991;-74
2023/06/24 04:26:40;;;;;;;2.60;2.20;;;21.80;97.60;;;;;;4927037;28;20926;-75
2023/06/24 04:29:06;;;;;;;3.42;2.35;;;21.90;97.60;;;;;;4927510;28;20432;-75
2023/06/24 04:31:33;;;;;;;2.77;2.40;;;22.00;97.60;;;;;;4939137;28;21000;-75
2023/06/24 04:33:59;;;;;;;5.60;2.70;;;22.10;97.90;;;;;;4941577;28;21267;-75
2023/06/24 04:36:25;;;;;;;4.00;2.40;;;22.10;97.50;;;;;;4942948;28;20512;-76
2023/06/24 04:38:51;;;;;;;3.70;2.40;;;22.30;97.30;;;;;;4964995;28;20418;-75
2023/06/24 04:41:19;;;;;;;3.15;2.40;;;22.40;97.30;;;;;;4923789;28;20417;-74
2023/06/24 04:43:45;;;;;;;5.82;2.33;;;22.50;97.40;;;;;;4949379;28;20496;-74
2023/06/24 04:46:11;;;;;;;4.38;2.50;;;22.50;97.60;;;;;;4930416;28;20422;-74
2023/06/24 04:48:37;;;;;;;3.50;2.70;;;22.50;98.40;;;;;;4933169;28;20429;-74
2023/06/24 04:51:03;;;;;;;4.22;2.55;;;22.70;98.70;;;;;;4954725;28;20497;-74
2023/06/24 04:53:30;;;;;;;3.08;2.20;;;22.70;98.90;;;;;;4939267;28;20431;-74
2023/06/24 04:55:56;;;;;;;3.13;2.40;;;22.80;98.90;;;;;;4946722;28;20800;-74
2023/06/24 04:58:22;;;;;;;2.80;2.33;;;22.80;98.40;;;;;;4947319;28;21175;-74
2023/06/24 05:00:48;;;;;;;5.07;2.70;;;22.90;98.00;;;;;;4960649;28;20960;-74
2023/06/24 05:03:15;;;;;;;3.50;2.53;;;22.90;97.20;;;;;;4935770;28;20527;-74
2023/06/24 05:05:41;;;;;;;2.67;2.20;;;23.00;96.80;;;;;;4935517;28;20446;-74
2023/06/24 05:08:07;;;;;;;3.20;2.53;;;23.10;97.30;;;;;;4956673;28;20423;-74
2023/06/24 05:10:34;;;;;;;3.42;2.70;;;23.20;97.50;;;;;;4966333;28;20422;-74
2023/06/24 05:13:00;;;;;;;3.67;2.35;;;23.20;97.10;;;;;;4959936;28;20410;-74
2023/06/24 05:15:26;;;;;;;5.72;2.63;;;23.30;97.10;;;;;;4929667;28;20419;-73
2023/06/24 05:17:53;;;;;;;4.50;2.90;;;23.30;96.80;;;;;;4938242;28;20884;-73
2023/06/24 05:20:19;;;;;;;4.50;2.65;;;23.40;96.10;;;;;;4957295;28;20522;-73
2023/06/24 05:22:45;;;;;;;3.63;2.60;;;23.50;96.20;;;;;;4937477;28;20424;-73
2023/06/24 05:25:11;;;;;;;3.38;2.50;;;23.50;96.60;;;;;;4930030;28;20472;-73
2023/06/24 05:27:38;;;;;;;3.80;2.60;;;23.60;96.60;;;;;;4939089;28;20432;-73
2023/06/24 05:30:05;;;;;;;3.83;2.55;;;23.60;96.80;;;;;;4934078;28;20519;-73
2023/06/24 05:32:31;;;;;;;6.53;2.20;;;23.70;97.20;;;;;;4943162;28;20408;-73
2023/06/24 05:34:57;;;;;;;5.10;2.58;;;23.80;96.20;;;;;;5001872;28;20419;-72
2023/06/24 05:37:24;;;;;;;4.23;2.90;;;23.80;96.00;;;;;;4936542;28;20477;-73
2023/06/24 05:39:50;;;;;;;2.90;2.37;;;23.90;96.90;;;;;;4932099;28;20427;-73
2023/06/24 05:42:16;;;;;;;2.85;2.50;;;24.00;97.00;;;;;;4949042;28;20833;-72
2023/06/24 05:44:42;;;;;;;6.63;2.70;;;24.00;96.80;;;;;;4932950;28;20432;-72
2023/06/24 05:47:09;;;;;;;5.20;3.10;;;24.00;97.30;;;;;;4936002;28;20425;-72
2023/06/24 05:49:35;;;;;;;4.47;2.75;;;24.20;96.80;;;;;;4934531;28;20436;-73
2023/06/24 05:52:01;;;;;;;6.40;2.70;;;24.20;96.70;;;;;;4938502;28;20792;-72
2023/06/24 05:54:27;;;;;;;4.60;2.88;;;24.30;96.60;;;;;;4922224;28;20456;-72
2023/06/24 05:56:54;;;;;;;7.80;2.87;;;24.30;96.90;;;;;;4927811;28;21007;-74
2023/06/24 05:59:20;;;;;;;4.25;2.80;;;24.40;97.30;;;;;;4938874;28;20768;-74
2023/06/24 06:01:46;;;;;;;4.72;2.53;;;24.50;97.10;;;;;;4951392;28;20561;-74
2023/06/24 06:04:12;;;;;;;4.72;2.47;;;24.70;96.30;;;;;;4927601;28;20910;-73
2023/06/24 06:06:39;;;;;;;6.70;2.65;;;24.70;97.00;;;;;;4937028;28;20423;-74
2023/06/24 06:09:06;;;;;;;3.22;2.78;;;24.90;96.50;;;;;;4933333;28;20865;-73
2023/06/24 06:11:32;;;;;;;4.20;2.50;;;25.10;96.10;;;;;;4934565;28;20433;-73
2023/06/24 06:13:59;;;;;;;3.93;2.70;;;25.30;95.90;;;;;;4941990;28;20433;-73
2023/06/24 06:16:25;;;;;;;4.47;2.47;;;25.20;96.40;;;;;;4938263;28;21501;-73
2023/06/24 06:18:51;;;;;;;4.10;2.70;;;25.30;96.40;;;;;;4939526;28;20933;-73
2023/06/24 06:21:18;;;;;;;5.40;2.67;;;25.40;96.60;;;;;;4936185;28;20435;-73
2023/06/24 06:23:44;;;;;;;3.58;2.53;;;25.50;96.70;;;;;;4935030;28;20826;-74
2023/06/24 06:26:10;;;;;;;3.95;2.58;;;25.60;96.60;;;;;;4938243;28;21039;-74
2023/06/24 06:28:36;;;;;;;4.55;2.72;;;25.70;97.10;;;;;;4935116;28;20437;-74
2023/06/24 06:31:03;;;;;;;3.88;2.67;;;25.80;97.00;;;;;;4951222;28;20415;-74
2023/06/24 06:33:29;;;;;;;6.18;2.70;;;26.00;96.40;;;;;;4951743;28;20503;-73
2023/06/24 06:35:56;;;;;;;5.15;2.60;;;26.10;95.90;;;;;;4925097;28;20431;-73
2023/06/24 06:38:23;;;;;;;3.83;2.60;;;26.30;95.80;;;;;;4935202;28;20529;-73
2023/06/24 06:40:49;;;;;;;5.88;2.70;;;26.30;95.60;;;;;;4934338;28;21329;-73
2023/06/24 06:43:16;;;;;;;5.72;2.67;;;26.40;95.50;;;;;;4931441;28;20936;-73
2023/06/24 06:45:42;;;;;;;4.70;2.53;;;26.50;96.10;;;;;;4917522;28;20426;-72
2023/06/24 06:48:09;;;;;;;3.78;2.53;;;26.50;96.40;;;;;;4940018;28;20421;-73
2023/06/24 06:50:35;;;;;;;4.47;2.78;;;26.60;96.10;;;;;;4931180;28;20521;-73
2023/06/24 06:53:02;;;;;;;5.32;2.72;;;26.60;96.50;;;;;;4940479;28;20438;-73
2023/06/24 06:55:28;;;;;;;4.45;2.55;;;26.60;97.10;;;;;;4935284;28;20521;-73
2023/06/24 06:57:57;;;;;;;4.30;2.75;;;26.70;97.30;;;;;;4938968;28;21591;-73
2023/06/24 07:00:23;;;;;;;3.22;2.50;;;26.90;96.80;;;;;;4930629;28;20426;-73
2023/06/24 07:02:50;;;;;;;5.33;2.70;;;26.90;96.90;;;;;;4931772;28;20434;-73
2023/06/24 07:05:16;;;;;;;8.10;2.65;;;27.00;97.20;;;;;;4946481;28;20527;-73
2023/06/24 07:07:45;;;;;;;3.80;2.80;;;27.10;96.90;;;;;;4936348;28;21082;-73
2023/06/24 07:10:11;;;;;;;6.43;3.00;;;27.20;97.30;;;;;;4954837;28;20485;-73
2023/06/24 07:12:38;;;;;;;3.90;2.60;;;27.20;97.80;;;;;;4939715;28;20869;-73
2023/06/24 07:15:05;;;;;;;2.80;2.40;;;27.30;97.60;;;;;;4903037;28;20422;-73
2023/06/24 07:17:31;;;;;;;4.70;2.60;;;27.30;98.20;;;;;;4932200;28;20436;-73
2023/06/24 07:19:57;;;;;;;7.10;2.90;;;27.40;98.30;;;;;;4955261;28;20926;-73
2023/06/24 07:22:24;;;;;;;4.75;2.70;;;27.50;98.70;;;;;;4923113;28;20439;-73
2023/06/24 07:24:50;;;;;;;5.60;3.03;;;27.50;98.70;;;;;;4955364;28;20430;-73
2023/06/24 07:27:16;;;;;;;5.85;2.92;;;27.70;98.10;;;;;;4925430;28;20799;-73
2023/06/24 07:29:42;;;;;;;5.28;2.63;;;27.70;98.70;;;;;;4933286;28;20428;-73
2023/06/24 07:32:09;;;;;;;6.05;2.75;;;27.80;99.80;;;;;;4930151;28;20437;-73
2023/06/24 07:34:35;;;;;;;4.03;2.60;;;27.90;99.90;;;;;;4935239;28;20485;-73
2023/06/24 07:37:01;;;;;;;4.45;2.50;;;27.90;99.90;;;;;;4944362;28;20426;-73
2023/06/24 07:39:28;;;;;;;3.60;2.70;;;28.00;99.90;;;;;;4944798;28;20484;-73
2023/06/24 07:41:54;;;;;;;4.90;2.72;;;28.10;99.90;;;;;;4940385;28;20408;-73
2023/06/24 07:44:20;;;;;;;4.03;2.78;;;28.20;99.90;;;;;;4928118;28;20970;-73
2023/06/24 07:46:48;;;;;;;4.22;2.80;;;28.30;99.90;;;;;;4937318;28;20412;-73
2023/06/24 07:49:14;;;;;;;4.45;2.90;;;28.40;99.90;;;;;;4951082;28;20416;-73
2023/06/24 07:51:40;;;;;;;3.15;2.40;;;28.50;99.90;;;;;;4929622;28;20557;-73
2023/06/24 07:54:07;;;;;;;4.07;2.72;;;28.60;99.90;;;;;;4942745;28;20461;-73
2023/06/24 07:56:33;;;;;;;5.17;2.70;;;28.60;99.90;;;;;;4996968;28;20421;-73
2023/06/24 07:58:59;;;;;;;3.93;2.50;;;28.80;99.90;;;;;;4939721;28;20424;-74
2023/06/24 08:01:25;;;;;;;3.30;2.70;;;28.80;99.90;;;;;;4929878;28;20477;-74
2023/06/24 08:03:51;;;;;;;6.03;2.97;;;28.90;99.90;;;;;;4946211;28;21177;-74
2023/06/24 08:06:18;;;;;;;3.53;2.73;;;29.10;99.90;;;;;;4954697;28;20430;-74
2023/06/24 08:08:46;;;;;;;3.88;2.70;;;29.20;99.90;;;;;;4950501;28;20426;-74
2023/06/24 08:11:13;;;;;;;3.83;2.67;;;29.40;99.90;;;;;;4951994;28;20966;-74
2023/06/24 08:13:39;;;;;;;7.18;2.63;;;29.50;99.90;;;;;;4960037;28;20425;-74
2023/06/24 08:16:06;;;;;;;3.08;2.60;;;29.70;99.90;;;;;;4920970;28;20441;-74
2023/06/24 08:18:33;;;;;;;6.70;2.90;;;29.80;99.90;;;;;;4917671;28;20955;-74
2023/06/24 08:20:59;;;;;;;4.35;2.70;;;30.00;99.90;;;;;;4927521;28;20434;-74
2023/06/24 08:23:25;;;;;;;4.90;2.60;;;30.10;99.90;;;;;;4935499;28;20968;-74
2023/06/24 08:25:52;;;;;;;6.47;3.00;;;30.20;99.70;;;;;;4934445;28;21503;-74
2023/06/24 08:28:18;;;;;;;7.10;2.75;;;30.30;99.90;;;;;;4949084;28;20422;-74
2023/06/24 08:30:44;;;;;;;4.20;2.50;;;30.30;99.90;;;;;;4931162;28;20424;-74
2023/06/24 08:33:10;;;;;;;5.75;2.80;;;30.40;99.90;;;;;;4953010;28;20421;-74
2023/06/24 08:35:40;;;;;;;3.38;2.60;;;30.60;99.90;;;;;;4925954;28;20433;-74
2023/06/24 08:38:07;;;;;;;5.00;2.80;;;30.70;99.20;;;;;;4936062;28;20421;-74
2023/06/24 08:40:33;;;;;;;7.00;2.60;;;30.90;99.90;;;;;;4951444;28;20422;-74
2023/06/24 08:43:00;;;;;;;4.20;2.40;;;30.90;98.90;;;;;;4950502;28;20440;-74
2023/06/24 08:45:26;;;;;;;5.70;2.70;;;31.00;97.80;;;;;;4936531;28;20860;-74
2023/06/24 08:47:55;;;;;;;5.75;2.50;;;31.10;97.40;;;;;;4942136;28;20459;-74
2023/06/24 08:50:30;;;;;;;5.80;2.67;;;31.10;97.30;;;;;;4936095;28;20419;-74
2023/06/24 08:52:57;;;;;;;4.65;2.60;;;31.10;97.60;;;;;;4934577;28;20423;-74
2023/06/24 08:55:31;;;;;;;4.37;2.60;;;31.10;97.20;;;;;;4933775;28;20498;-74
2023/06/24 08:57:58;;;;;;;4.07;2.65;;;31.30;95.50;;;;;;4930712;28;20426;-74
2023/06/24 09:00:24;;;;;;;6.63;2.80;;;31.50;96.80;;;;;;4930250;28;20569;-74
2023/06/24 09:02:50;;;;;;;4.07;2.50;;;31.40;96.60;;;;;;4933311;28;20475;-74
2023/06/24 09:05:17;;;;;;;6.70;2.70;;;31.50;97.30;;;;;;4938448;28;20461;-74
2023/06/24 09:07:43;;;;;;;3.63;2.47;;;31.50;97.10;;;;;;4930423;28;20411;-74
2023/06/24 09:10:10;;;;;;;5.10;2.50;;;31.70;97.10;;;;;;4941813;28;20426;-74
2023/06/24 09:12:36;;;;;;;4.78;2.60;;;31.80;97.30;;;;;;4939020;28;20460;-74
2023/06/24 09:15:04;;;;;;;3.28;2.50;;;31.80;96.50;;;;;;4946186;28;20431;-74
2023/06/24 09:17:30;;;;;;;5.68;2.50;;;31.70;96.80;;;;;;4940545;28;20425;-74
2023/06/24 09:20:05;;;;;;;4.10;2.50;;;31.60;96.00;;;;;;4958200;28;22281;-74
2023/06/24 09:22:31;;;;;;;5.20;2.47;;;31.80;96.40;;;;;;4933311;28;20492;-75
2023/06/24 09:25:02;;;;;;;4.47;2.40;;;32.00;94.40;;;;;;4930168;28;20424;-74
2023/06/24 09:27:35;;;;;;;3.70;2.70;;;32.30;94.60;;;;;;4943506;28;20419;-74
2023/06/24 09:30:18;;;;;;;5.50;2.83;;;32.30;94.80;;;;;;4941643;28;20566;-74
2023/06/24 09:32:45;;;;;;;3.95;2.50;;;32.50;94.70;;;;;;4935350;28;20426;-74
2023/06/24 09:35:11;;;;;;;6.68;2.53;;;32.50;93.60;;;;;;4927428;28;20730;-74
2023/06/24 09:37:38;;;;;;;6.00;2.40;;;32.70;93.10;;;;;;4933085;28;20434;-74
2023/06/24 09:40:06;;;;;;;3.63;2.40;;;32.70;91.10;;;;;;4932532;28;20824;-75
2023/06/24 09:42:33;;;;;;;4.00;2.40;;;32.70;90.80;;;;;;4932903;28;20441;-74
2023/06/24 09:45:05;;;;;;;4.13;2.53;;;32.80;90.30;;;;;;4947519;28;20432;-74
2023/06/24 09:47:32;;;;;;;5.10;2.40;;;32.70;89.00;;;;;;4949095;28;20924;-74
2023/06/24 09:49:59;;;;;;;4.93;2.50;;;32.80;91.70;;;;;;4948986;28;20493;-74
2023/06/24 09:52:27;;;;;;;3.75;2.40;;;33.10;92.30;;;;;;4936518;28;20519;-74
2023/06/24 09:54:58;;;;;;;5.40;2.40;;;33.10;90.90;;;;;;4957182;28;21059;-74
2023/06/24 09:57:31;;;;;;;5.80;2.60;;;33.20;92.80;;;;;;4955759;28;20424;-74
2023/06/24 09:59:59;;;;;;;4.72;2.65;;;33.20;91.80;;;;;;4926154;28;20508;-75
2023/06/24 10:02:26;;;;;;;4.18;2.80;;;33.20;92.00;;;;;;4929651;28;20428;-75
2023/06/24 10:04:54;;;;;;;3.50;2.50;;;33.30;93.20;;;;;;4947188;28;20417;-75
2023/06/24 10:07:20;;;;;;;3.35;2.40;;;33.30;93.20;;;;;;4938369;28;20417;-74
2023/06/24 10:09:49;;;;;;;4.63;2.60;;;33.30;92.10;;;;;;4940331;28;20424;-75
2023/06/24 10:12:16;;;;;;;3.42;2.55;;;33.10;90.10;;;;;;4933996;28;20438;-74
2023/06/24 10:14:42;;;;;;;5.57;2.47;;;33.10;90.50;;;;;;4938498;28;21126;-75
2023/06/24 10:17:08;;;;;;;5.72;2.50;;;33.10;88.40;;;;;;4928821;28;20522;-74
2023/06/24 10:19:41;;;;;;;3.60;2.53;;;33.10;90.60;;;;;;4941686;28;20854;-75
2023/06/24 10:22:11;;;;;;;3.10;2.50;;;33.10;91.50;;;;;;4914089;28;21907;-75
2023/06/24 10:24:42;;;;;;;3.27;2.53;;;33.20;90.30;;;;;;4923951;28;20430;-75
2023/06/24 10:27:13;;;;;;;3.60;2.40;;;33.10;90.80;;;;;;4952991;28;20423;-75
2023/06/24 10:29:45;;;;;;;3.10;2.45;;;33.00;90.10;;;;;;4922445;28;20804;-75
2023/06/24 10:32:11;;;;;;;4.97;2.50;;;33.10;89.10;;;;;;4922704;28;20427;-75
2023/06/24 10:34:37;;;;;;;4.55;2.40;;;33.10;91.00;;;;;;4931438;28;20496;-75
2023/06/24 10:37:05;;;;;;;4.43;2.40;;;33.00;86.10;;;;;;4941198;28;20444;-75
2023/06/24 10:39:52;;;;;;;3.85;2.58;;;33.10;90.00;;;;;;4925115;28;20499;-75
2023/06/24 10:42:37;;;;;;;4.60;2.40;;;33.10;91.20;;;;;;4935545;28;20435;-75
2023/06/24 10:45:09;;;;;;;3.80;2.40;;;33.00;89.40;;;;;;4919107;28;20433;-75
2023/06/24 10:47:44;;;;;;;2.85;2.35;;;32.90;87.60;;;;;;4943821;28;20423;-75
2023/06/24 10:50:14;;;;;;;4.33;2.60;;;32.90;89.50;;;;;;4930708;28;20516;-75
2023/06/24 10:52:46;;;;;;;3.53;2.30;;;32.90;87.00;;;;;;4950223;28;20535;-75
2023/06/24 10:55:18;;;;;;;4.30;2.70;;;32.90;84.80;;;;;;4950526;28;20428;-75
2023/06/24 10:57:45;;;;;;;3.80;2.72;;;32.90;84.90;;;;;;4923385;28;21199;-75
2023/06/24 11:00:15;;;;;;;4.40;2.53;;;32.90;84.20;;;;;;4926175;28;20425;-74
2023/06/24 11:02:42;;;;;;;4.97;2.63;;;32.90;90.00;;;;;;4942668;28;20437;-75
2023/06/24 11:05:09;;;;;;;5.47;2.50;;;32.80;90.20;;;;;;4931517;28;21048;-75
2023/06/24 11:07:38;;;;;;;4.35;2.67;;;32.80;93.60;;;;;;4943292;28;21194;-75
2023/06/24 11:10:08;;;;;;;4.97;2.53;;;32.70;93.60;;;;;;4936159;28;20427;-75
2023/06/24 11:12:41;;;;;;;3.63;2.40;;;32.70;94.90;;;;;;4934461;28;20816;-75
2023/06/24 11:15:09;;;;;;;4.07;2.60;;;32.60;94.30;;;;;;4931067;28;20423;-75
2023/06/24 11:17:37;;;;;;;6.07;2.40;;;32.50;93.80;;;;;;4930223;28;21998;-75
2023/06/24 11:20:10;;;;;;;6.17;2.43;;;32.30;93.60;;;;;;4938118;28;20420;-75
2023/06/24 11:22:37;;;;;;;4.15;2.50;;;32.20;93.10;;;;;;4933349;28;21125;-75
2023/06/24 11:25:03;;;;;;;3.67;2.30;;;32.20;93.20;;;;;;4937636;28;20430;-75
2023/06/24 11:27:31;;;;;;;2.83;2.30;;;32.20;92.40;;;;;;4929444;28;21031;-75
2023/06/24 11:30:01;;;;;;;5.75;2.50;;;32.20;92.60;;;;;;4937272;28;20906;-75
2023/06/24 11:32:38;;;;;;;2.97;2.40;;;32.20;92.10;;;;;;4941412;28;20418;-75
2023/06/24 11:35:10;;;;;;;2.88;2.30;;;32.10;92.70;;;;;;4945310;28;21013;-75
2023/06/24 11:37:40;;;;;;;4.38;2.50;;;32.10;91.80;;;;;;4927208;28;20897;-75
2023/06/24 11:40:09;;;;;;;7.40;2.55;;;32.10;91.70;;;;;;4932909;28;20805;-75
2023/06/24 11:42:44;;;;;;;4.32;2.30;;;32.10;91.30;;;;;;4924285;28;20453;-75
2023/06/24 11:45:15;;;;;;;5.35;2.50;;;32.10;90.40;;;;;;4919531;28;21417;-75
2023/06/24 11:47:41;;;;;;;5.25;2.60;;;32.10;92.10;;;;;;4925289;28;20408;-75
2023/06/24 11:50:09;;;;;;;3.40;2.33;;;32.20;91.20;;;;;;4940787;28;20511;-75
2023/06/24 11:52:41;;;;;;;3.87;2.37;;;32.20;90.90;;;;;;4924667;28;21542;-75
2023/06/24 11:55:18;;;;;;;5.43;2.40;;;32.20;90.90;;;;;;4922789;28;22445;-75
2023/06/24 11:58:04;;;;;;;4.53;2.43;;;32.20;90.60;;;;;;4943787;28;20415;-75
2023/06/24 12:00:39;;;;;;;3.97;2.50;;;32.20;90.80;;;;;;4948989;28;20435;-75
2023/06/24 12:03:07;;;;;;;5.40;2.55;;;32.10;91.00;;;;;;4930814;28;20483;-75
2023/06/24 12:05:36;;;;;;;4.75;2.58;;;32.00;90.70;;;;;;4954667;28;21034;-75
2023/06/24 12:08:07;;;;;;;4.82;2.50;;;32.10;91.30;;;;;;4931791;28;20471;-74
2023/06/24 12:10:35;;;;;;;3.28;2.40;;;32.10;91.90;;;;;;4949971;28;20937;-75
2023/06/24 12:13:05;;;;;;;3.87;2.80;;;32.00;91.80;;;;;;4942503;28;20521;-74
2023/06/24 12:15:32;;;;;;;4.05;2.50;;;32.00;91.00;;;;;;4919126;28;20630;-74
2023/06/24 12:17:59;;;;;;;3.60;2.50;;;32.00;91.70;;;;;;4927145;28;20916;-74
2023/06/24 12:20:26;;;;;;;4.63;2.80;;;32.10;90.10;;;;;;4933324;28;20438;-73
2023/06/24 12:22:52;;;;;;;3.60;2.40;;;32.10;90.80;;;;;;4932754;28;20435;-75
2023/06/24 12:25:19;;;;;;;6.20;2.60;;;32.10;91.40;;;;;;4944000;28;20728;-75
2023/06/24 12:27:45;;;;;;;6.00;2.45;;;32.00;90.90;;;;;;4951342;28;20413;-74
2023/06/24 12:30:13;;;;;;;2.97;2.25;;;32.00;91.40;;;;;;4924802;28;20454;-74
2023/06/24 12:32:40;;;;;;;3.05;2.50;;;31.90;91.30;;;;;;4961109;28;20520;-75
2023/06/24 12:46:09;;;;;;;3.90;2.40;;;31.90;90.50;;;;;;4940517;28;20438;-73
2023/06/24 12:48:35;;;;;;;5.30;2.35;;;31.90;90.40;;;;;;4935662;28;20449;-74
2023/06/24 12:51:02;;;;;;;4.97;2.53;;;31.90;90.30;;;;;;4925587;28;20519;-74
2023/06/24 12:53:28;;;;;;;4.80;2.30;;;31.90;90.10;;;;;;4958412;28;20977;-75
2023/06/24 12:55:56;;;;;;;3.35;2.40;;;31.90;90.10;;;;;;4935953;28;20434;-75
2023/06/24 12:58:27;;;;;;;8.05;2.45;;;31.90;89.70;;;;;;4934517;28;20423;-75
2023/06/24 13:00:53;;;;;;;6.35;2.38;;;31.80;88.90;;;;;;4940885;28;20858;-74
2023/06/24 13:03:19;;;;;;;3.00;2.45;;;31.70;90.00;;;;;;4951709;28;20431;-75
2023/06/24 13:05:46;;;;;;;5.03;2.40;;;31.90;88.90;;;;;;4941125;28;20426;-75